North Springfield, Pennsylvania
Current Conditions -  °F | °C
As of 9:51 PM on Thursday 27 Nov 2014 (Local Time) from KERI Reporting Station
Overcast Overcast  
Wind Chill: 19°   Ceiling: 2300
Heat Index: 31°   Visibility: 10mi
Dew Point: 22°   Wind: 17mph
Humidity: 69%   Direction: 320°NW
Pressure: 30.18"   Gusts: 29mph
Location:  41.99°N, 80.42°W
Report Text: KERI 280251Z 32015G25KT 10SM BKN023 OVC032 M01/M06 A3018 RMK AO2 PK WND 32030/0235 SNE24 SLP228 P0000 60002 T10061056 53016 $
Loading
Personal Weather Stations






























Interactive Weather Map New forecast layout! Learn more

10-Day Weather Forecast

Advertisements
Track Severe Weather on mobile